Time;durP1;ratioP1;P1;durP2;ratioP2;P2;SDS_P1;SDS_P2;PMS_P1;PMS_P2;Temp;Humidity;BMP_temperature;BMP_pressure;BME280_temperature;BME280_humidity;BME280_pressure;Samples;Min_cycle;Max_cycle;Signal;HPM_P1;HPM_P2
2023/09/08 00:00:12;;;;;;;11.95;6.30;;;;;;;;;;5063228;28;20051;-64
2023/09/08 00:02:38;;;;;;;9.40;6.05;;;;;;;;;;5050125;28;20239;-62
2023/09/08 00:05:04;;;;;;;9.77;7.57;;;;;;;;;;5045110;28;20292;-62
2023/09/08 00:07:30;;;;;;;10.55;6.72;;;;;;;;;;5029931;28;20131;-63
2023/09/08 00:09:56;;;;;;;10.40;6.60;;;;;;;;;;5023734;28;20255;-62
2023/09/08 00:12:23;;;;;;;10.65;6.07;;;;;;;;;;5048754;28;20536;-64
2023/09/08 00:14:49;;;;;;;10.50;6.32;;;;;;;;;;5045237;28;20188;-64
2023/09/08 00:17:15;;;;;;;9.00;6.70;;;;;;;;;;5046631;28;20051;-63
2023/09/08 00:19:42;;;;;;;10.52;6.75;;;;;;;;;;5051777;28;20687;-62
2023/09/08 00:22:08;;;;;;;9.55;6.60;;;;;;;;;;5048107;28;20575;-62
2023/09/08 00:24:34;;;;;;;7.90;6.85;;;;;;;;;;5056262;28;20521;-63
2023/09/08 00:27:00;;;;;;;10.63;6.78;;;;;;;;;;5056045;28;20098;-62
2023/09/08 00:29:26;;;;;;;8.90;6.78;;;;;;;;;;5058206;28;20571;-63
2023/09/08 00:31:52;;;;;;;8.63;6.82;;;;;;;;;;5051332;28;20123;-63
2023/09/08 00:34:19;;;;;;;11.25;7.60;;;;;;;;;;5054019;28;20040;-63
2023/09/08 00:36:45;;;;;;;7.78;6.82;;;;;;;;;;5054093;28;20056;-63
2023/09/08 00:39:11;;;;;;;8.20;6.90;;;;;;;;;;5046064;28;20503;-64
2023/09/08 00:41:37;;;;;;;9.35;7.50;;;;;;;;;;5054746;28;20674;-64
2023/09/08 00:44:04;;;;;;;12.13;7.75;;;;;;;;;;5046835;28;20044;-64
2023/09/08 00:46:31;;;;;;;9.68;7.18;;;;;;;;;;5048238;28;20647;-63
2023/09/08 00:48:58;;;;;;;9.25;6.53;;;;;;;;;;5045539;28;20551;-63
2023/09/08 00:51:24;;;;;;;9.50;6.25;;;;;;;;;;5054968;28;20154;-63
2023/09/08 00:53:50;;;;;;;9.73;6.45;;;;;;;;;;5050781;28;20036;-64
2023/09/08 00:56:17;;;;;;;9.70;7.30;;;;;;;;;;5049437;28;20416;-63
2023/09/08 00:58:43;;;;;;;9.98;7.55;;;;;;;;;;5053597;28;20242;-61
2023/09/08 01:01:09;;;;;;;9.25;7.00;;;;;;;;;;5052846;28;20045;-62
2023/09/08 01:03:35;;;;;;;8.13;6.85;;;;;;;;;;5054929;28;20140;-63
2023/09/08 01:06:02;;;;;;;8.55;7.60;;;;;;;;;;5053381;28;20127;-62
2023/09/08 01:08:28;;;;;;;8.82;7.85;;;;;;;;;;5052598;28;20302;-63
2023/09/08 01:10:54;;;;;;;11.02;7.22;;;;;;;;;;5052927;28;20519;-63
2023/09/08 01:13:20;;;;;;;7.97;7.18;;;;;;;;;;5055613;28;20068;-64
2023/09/08 01:15:47;;;;;;;12.00;7.30;;;;;;;;;;5054309;28;20388;-64
2023/09/08 01:18:13;;;;;;;9.63;6.75;;;;;;;;;;5050873;28;20176;-62
2023/09/08 01:20:49;;;;;;;12.77;7.50;;;;;;;;;;5052908;28;20044;-63
2023/09/08 01:23:24;;;;;;;10.60;6.97;;;;;;;;;;5054074;28;20116;-64
2023/09/08 01:25:57;;;;;;;13.18;7.63;;;;;;;;;;5050669;28;20265;-63
2023/09/08 01:28:24;;;;;;;8.50;7.57;;;;;;;;;;5052274;28;20040;-64
2023/09/08 01:30:50;;;;;;;13.63;8.13;;;;;;;;;;5055084;28;20071;-64
2023/09/08 01:33:16;;;;;;;9.25;7.60;;;;;;;;;;5056591;28;20139;-62
2023/09/08 01:35:42;;;;;;;9.23;7.82;;;;;;;;;;5053063;28;20055;-63
2023/09/08 01:38:08;;;;;;;9.52;7.90;;;;;;;;;;5056441;28;20040;-61
2023/09/08 01:40:35;;;;;;;9.25;6.95;;;;;;;;;;5053330;28;20112;-63
2023/09/08 01:43:01;;;;;;;14.13;8.45;;;;;;;;;;5053677;28;20040;-63
2023/09/08 01:45:27;;;;;;;9.07;6.80;;;;;;;;;;5046681;28;20052;-63
2023/09/08 01:47:53;;;;;;;13.52;8.48;;;;;;;;;;5051397;28;20439;-63
2023/09/08 01:50:24;;;;;;;9.23;7.32;;;;;;;;;;5050749;28;20491;-63
2023/09/08 01:52:51;;;;;;;9.35;6.70;;;;;;;;;;5049252;28;20067;-62
2023/09/08 01:55:17;;;;;;;11.75;8.57;;;;;;;;;;5048504;28;20093;-63
2023/09/08 01:57:43;;;;;;;9.75;8.57;;;;;;;;;;5045195;28;20072;-63
2023/09/08 02:00:11;;;;;;;8.38;7.20;;;;;;;;;;5049983;28;20108;-64
2023/09/08 02:02:37;;;;;;;9.57;8.48;;;;;;;;;;5046128;28;20642;-63
2023/09/08 02:05:03;;;;;;;11.20;8.35;;;;;;;;;;5039746;28;20056;-62
2023/09/08 02:07:29;;;;;;;9.35;7.75;;;;;;;;;;5041667;28;20048;-63
2023/09/08 02:09:55;;;;;;;9.00;7.72;;;;;;;;;;5040287;28;20120;-63
2023/09/08 02:12:22;;;;;;;10.00;7.10;;;;;;;;;;5039661;28;20067;-63
2023/09/08 02:14:48;;;;;;;10.38;7.68;;;;;;;;;;5041810;28;20040;-64
2023/09/08 02:17:14;;;;;;;8.13;7.22;;;;;;;;;;5038297;28;20067;-63
2023/09/08 02:19:40;;;;;;;12.18;8.38;;;;;;;;;;5064942;28;20525;-63
2023/09/08 02:22:07;;;;;;;8.75;7.20;;;;;;;;;;5042773;28;20247;-62
2023/09/08 02:24:33;;;;;;;9.85;8.25;;;;;;;;;;5050888;28;20427;-63
2023/09/08 02:26:59;;;;;;;10.35;8.55;;;;;;;;;;5035307;28;20259;-63
2023/09/08 02:29:25;;;;;;;9.30;7.88;;;;;;;;;;5053427;28;20111;-63
2023/09/08 02:31:51;;;;;;;13.77;8.82;;;;;;;;;;5052868;28;20179;-63
2023/09/08 02:34:17;;;;;;;12.90;8.23;;;;;;;;;;5051910;28;20036;-63
2023/09/08 02:36:43;;;;;;;9.27;7.45;;;;;;;;;;5050464;28;20052;-63
2023/09/08 02:39:10;;;;;;;9.85;7.47;;;;;;;;;;5049646;28;20539;-62
2023/09/08 02:41:36;;;;;;;10.30;8.30;;;;;;;;;;5058027;28;20115;-63
2023/09/08 02:44:03;;;;;;;11.10;7.57;;;;;;;;;;5048808;28;20286;-62
2023/09/08 02:46:29;;;;;;;11.73;9.05;;;;;;;;;;5050644;28;20771;-63
2023/09/08 02:48:55;;;;;;;8.43;7.13;;;;;;;;;;5046409;28;20079;-63
2023/09/08 02:51:21;;;;;;;10.65;8.63;;;;;;;;;;5042806;28;20264;-63
2023/09/08 02:53:47;;;;;;;10.48;8.43;;;;;;;;;;5051379;28;20117;-62
2023/09/08 02:56:14;;;;;;;9.18;8.20;;;;;;;;;;5047784;28;20040;-63
2023/09/08 02:58:40;;;;;;;10.75;8.15;;;;;;;;;;5047702;28;20411;-62
2023/09/08 03:01:14;;;;;;;11.75;8.70;;;;;;;;;;5046925;28;20551;-63
2023/09/08 03:03:40;;;;;;;10.68;8.13;;;;;;;;;;5039300;28;20393;-63
2023/09/08 03:06:06;;;;;;;8.60;7.70;;;;;;;;;;5045210;28;20037;-63
2023/09/08 03:08:33;;;;;;;9.38;8.40;;;;;;;;;;5044045;28;20125;-63
2023/09/08 03:10:59;;;;;;;11.82;8.25;;;;;;;;;;5043937;28;20040;-63
2023/09/08 03:13:26;;;;;;;15.60;8.38;;;;;;;;;;5042491;28;20187;-61
2023/09/08 03:15:52;;;;;;;11.57;8.73;;;;;;;;;;5044482;28;20334;-63
2023/09/08 03:18:18;;;;;;;10.85;8.00;;;;;;;;;;5042670;28;20073;-63
2023/09/08 03:20:48;;;;;;;9.60;8.60;;;;;;;;;;5052740;28;20124;-63
2023/09/08 03:23:14;;;;;;;9.55;8.57;;;;;;;;;;5061367;28;20420;-63
2023/09/08 03:25:40;;;;;;;8.98;7.32;;;;;;;;;;5046370;28;20047;-64
2023/09/08 03:28:06;;;;;;;11.98;9.40;;;;;;;;;;5059515;28;20145;-62
2023/09/08 03:30:33;;;;;;;9.80;8.02;;;;;;;;;;5058784;28;20274;-63
2023/09/08 03:32:59;;;;;;;10.70;9.20;;;;;;;;;;5055471;28;20111;-63
2023/09/08 03:35:25;;;;;;;9.82;8.68;;;;;;;;;;5055364;28;20286;-63
2023/09/08 03:37:51;;;;;;;9.73;7.75;;;;;;;;;;5055631;28;20180;-62
2023/09/08 03:40:17;;;;;;;12.30;9.32;;;;;;;;;;5056722;28;20048;-62
2023/09/08 03:42:43;;;;;;;12.88;9.40;;;;;;;;;;5056270;28;20112;-63
2023/09/08 03:45:10;;;;;;;10.98;9.15;;;;;;;;;;5049567;28;20509;-64
2023/09/08 03:47:36;;;;;;;10.70;8.15;;;;;;;;;;5048815;28;20184;-64
2023/09/08 03:50:02;;;;;;;11.32;8.00;;;;;;;;;;5043893;28;20485;-63
2023/09/08 03:52:34;;;;;;;10.63;8.70;;;;;;;;;;5042017;28;20052;-63
2023/09/08 03:55:00;;;;;;;13.75;8.85;;;;;;;;;;5051231;28;20036;-62
2023/09/08 03:57:26;;;;;;;9.13;8.23;;;;;;;;;;5041173;28;20040;-63
2023/09/08 03:59:52;;;;;;;9.68;8.55;;;;;;;;;;5053321;28;20044;-63
2023/09/08 04:02:18;;;;;;;11.63;9.30;;;;;;;;;;5046444;28;20243;-63
2023/09/08 04:04:44;;;;;;;10.20;8.52;;;;;;;;;;5049381;28;20067;-62
2023/09/08 04:07:11;;;;;;;12.88;9.60;;;;;;;;;;5044287;28;20202;-62
2023/09/08 04:09:37;;;;;;;10.40;8.27;;;;;;;;;;5045245;28;20226;-63
2023/09/08 04:12:03;;;;;;;12.50;8.38;;;;;;;;;;5045470;28;20032;-63
2023/09/08 04:14:30;;;;;;;13.57;10.07;;;;;;;;;;5060226;28;20036;-63
2023/09/08 04:16:56;;;;;;;11.25;8.90;;;;;;;;;;5040679;28;20111;-62
2023/09/08 04:19:22;;;;;;;11.32;9.07;;;;;;;;;;5057560;28;20293;-62
2023/09/08 04:21:48;;;;;;;9.93;8.15;;;;;;;;;;5047270;28;20529;-62
2023/09/08 04:24:14;;;;;;;12.05;9.18;;;;;;;;;;5045769;28;20067;-63
2023/09/08 04:26:40;;;;;;;9.80;8.80;;;;;;;;;;5047143;28;20045;-63
2023/09/08 04:29:06;;;;;;;9.07;7.93;;;;;;;;;;5046999;28;20028;-62
2023/09/08 04:31:32;;;;;;;11.52;10.32;;;;;;;;;;5054364;28;20183;-62
2023/09/08 04:33:59;;;;;;;12.40;10.35;;;;;;;;;;5055571;28;20176;-63
2023/09/08 04:36:25;;;;;;;12.70;8.77;;;;;;;;;;5036785;28;20167;-61
2023/09/08 04:38:51;;;;;;;11.98;9.15;;;;;;;;;;5050956;28;20297;-63
2023/09/08 04:41:17;;;;;;;11.45;9.82;;;;;;;;;;5047163;28;20063;-62
2023/09/08 04:43:43;;;;;;;9.68;8.68;;;;;;;;;;5045415;28;20036;-61
2023/09/08 04:46:09;;;;;;;9.75;8.75;;;;;;;;;;5050822;28;20059;-61
2023/09/08 04:48:35;;;;;;;14.38;9.23;;;;;;;;;;5049276;28;20210;-62
2023/09/08 04:51:02;;;;;;;10.80;9.65;;;;;;;;;;5042270;28;20199;-62
2023/09/08 04:53:28;;;;;;;10.90;9.02;;;;;;;;;;5047743;28;20211;-62
2023/09/08 04:55:54;;;;;;;10.48;9.40;;;;;;;;;;5054975;28;20155;-63
2023/09/08 04:58:20;;;;;;;11.18;9.60;;;;;;;;;;5043592;28;20037;-62
2023/09/08 05:00:46;;;;;;;10.43;9.30;;;;;;;;;;5052406;28;20067;-63
2023/09/08 05:03:12;;;;;;;11.40;9.85;;;;;;;;;;5055350;28;20107;-61
2023/09/08 05:05:39;;;;;;;13.05;9.93;;;;;;;;;;5052994;28;20101;-62
2023/09/08 05:08:05;;;;;;;11.65;10.15;;;;;;;;;;5055919;28;20304;-63
2023/09/08 05:10:31;;;;;;;10.50;9.38;;;;;;;;;;5051431;28;20249;-62
2023/09/08 05:12:57;;;;;;;15.07;9.80;;;;;;;;;;5056236;28;20063;-63
2023/09/08 05:15:25;;;;;;;12.45;10.05;;;;;;;;;;5050483;28;20483;-61
2023/09/08 05:17:51;;;;;;;12.40;9.38;;;;;;;;;;5052474;28;20067;-63
2023/09/08 05:20:17;;;;;;;11.90;10.13;;;;;;;;;;5051870;28;20116;-63
2023/09/08 05:22:43;;;;;;;11.60;9.68;;;;;;;;;;5051778;28;20036;-62
2023/09/08 05:25:10;;;;;;;10.65;9.55;;;;;;;;;;5058191;28;20189;-63
2023/09/08 05:27:36;;;;;;;13.48;10.10;;;;;;;;;;5056790;28;20040;-62
2023/09/08 05:30:02;;;;;;;10.27;9.15;;;;;;;;;;5049987;28;20099;-61
2023/09/08 05:32:28;;;;;;;13.68;9.63;;;;;;;;;;5053726;28;20051;-63
2023/09/08 05:34:54;;;;;;;12.70;10.07;;;;;;;;;;5051753;28;20214;-62
2023/09/08 05:37:20;;;;;;;12.50;10.43;;;;;;;;;;5055825;28;20131;-61
2023/09/08 05:39:47;;;;;;;12.18;8.68;;;;;;;;;;5052020;28;20169;-63
2023/09/08 05:42:13;;;;;;;12.27;9.30;;;;;;;;;;5051511;28;20203;-63
2023/09/08 05:44:40;;;;;;;10.20;9.20;;;;;;;;;;5044628;28;20051;-62
2023/09/08 05:47:06;;;;;;;14.05;10.65;;;;;;;;;;5048957;28;20075;-63
2023/09/08 05:49:32;;;;;;;11.73;9.82;;;;;;;;;;5049049;28;20037;-63
2023/09/08 05:51:58;;;;;;;12.27;10.10;;;;;;;;;;5054328;28;20326;-63
2023/09/08 05:54:24;;;;;;;13.50;9.45;;;;;;;;;;5051436;28;20444;-62
2023/09/08 05:56:50;;;;;;;10.35;9.05;;;;;;;;;;5053106;28;20071;-63
2023/09/08 05:59:16;;;;;;;14.10;10.18;;;;;;;;;;5042775;28;20508;-62
2023/09/08 06:01:43;;;;;;;12.02;9.88;;;;;;;;;;5053581;28;20273;-63
2023/09/08 06:04:09;;;;;;;10.65;9.45;;;;;;;;;;5049514;28;20123;-63
2023/09/08 06:06:35;;;;;;;16.15;10.98;;;;;;;;;;5050593;28;20059;-63
2023/09/08 06:09:01;;;;;;;11.63;8.57;;;;;;;;;;5048156;28;20195;-62
2023/09/08 06:11:27;;;;;;;12.02;9.63;;;;;;;;;;5054061;28;20063;-62
2023/09/08 06:13:58;;;;;;;10.75;8.18;;;;;;;;;;5051636;28;20139;-63
2023/09/08 06:16:25;;;;;;;14.75;10.20;;;;;;;;;;5054261;28;20492;-63
2023/09/08 06:18:51;;;;;;;11.18;9.55;;;;;;;;;;5052895;28;20098;-63
2023/09/08 06:21:17;;;;;;;9.73;8.73;;;;;;;;;;5069400;28;20191;-63
2023/09/08 06:23:43;;;;;;;11.52;8.82;;;23.20;88.60;;;;;;5048839;28;20675;-63
2023/09/08 06:26:08;;;;;;;13.98;10.40;;;19.70;96.40;;;;;;5050048;28;20148;-62
2023/09/08 06:28:35;;;;;;;12.07;10.02;;;19.50;96.10;;;;;;5052002;28;20111;-62
2023/09/08 06:31:01;;;;;;;10.07;8.63;;;19.50;96.40;;;;;;5052172;28;20504;-64
2023/09/08 06:33:27;;;;;;;11.82;9.35;;;19.60;96.20;;;;;;5054502;28;20192;-64
2023/09/08 06:35:53;;;;;;;15.90;8.50;;;19.60;96.10;;;;;;5051668;28;20086;-62
2023/09/08 06:38:19;;;;;;;12.13;8.90;;;19.60;96.10;;;;;;5050845;28;20622;-63
2023/09/08 06:40:45;;;;;;;13.82;8.63;;;19.70;96.00;;;;;;5053108;28;20040;-64
2023/09/08 06:43:10;;;;;;;13.05;9.82;;;19.70;96.00;;;;;;5049492;28;20040;-64
2023/09/08 06:45:40;;;;;;;10.52;8.43;;;;;;;;;;5044249;28;20130;-63
2023/09/08 06:48:06;;;;;;;12.02;8.52;;;;;;;;;;5040427;28;20264;-63
2023/09/08 06:50:32;;;;;;;9.52;8.27;;;;;;;;;;5041556;28;20481;-63
2023/09/08 06:53:00;;;;;;;11.05;8.30;;;;;;;;;;5049898;28;20236;-63
2023/09/08 06:55:26;;;;;;;11.73;9.15;;;;;;;;;;5043861;28;20544;-63
2023/09/08 06:57:52;;;;;;;9.52;6.95;;;;;;;;;;5056882;28;20047;-63
2023/09/08 07:00:20;;;;;;;11.05;7.55;;;;;;;;;;5054730;28;20044;-63
2023/09/08 07:02:46;;;;;;;10.15;8.10;;;;;;;;;;5055060;28;20088;-62
2023/09/08 07:05:12;;;;;;;7.95;6.93;;;;;;;;;;5059159;28;20321;-66
2023/09/08 07:07:40;;;;;;;9.15;6.68;;;;;;;;;;5051899;28;20202;-63
2023/09/08 07:10:06;;;;;;;10.32;6.53;;;;;;;;;;5059047;28;20396;-64
2023/09/08 07:12:32;;;;;;;10.52;7.43;;;;;;;;;;5054534;28;20131;-63
2023/09/08 07:14:59;;;;;;;8.95;7.30;;;;;;;;;;5066469;28;20499;-62
2023/09/08 07:17:26;;;;;;;10.50;6.57;;;;;;;;;;5058061;28;20040;-64
2023/09/08 07:19:52;;;;;;;10.05;7.38;;;;;;;;;;5057554;28;20650;-64
2023/09/08 07:22:18;;;;;;;8.20;6.30;;;;;;;;;;5054790;28;20054;-63
2023/09/08 07:24:45;;;;;;;7.70;5.82;;;;;;;;;;5054587;28;20518;-63
2023/09/08 07:27:14;;;;;;;8.10;5.55;;;;;;;;;;5048214;28;20570;-63
2023/09/08 07:29:40;;;;;;;8.57;7.47;;;;;;;;;;5052390;28;20060;-63
2023/09/08 07:32:07;;;;;;;6.90;5.78;;;;;;;;;;5051930;28;20236;-62
2023/09/08 07:34:33;;;;;;;9.00;7.03;;;;;;;;;;5050060;28;20568;-63
2023/09/08 07:37:00;;;;;;;7.18;6.10;;;;;;;;;;5051946;28;20669;-63
2023/09/08 07:39:26;;;;;;;8.27;7.32;;;;;;;;;;5055313;28;20306;-62
2023/09/08 07:41:53;;;;;;;9.52;6.85;;;;;;;;;;5060461;28;20043;-62
2023/09/08 07:44:19;;;;;;;12.98;7.90;;;;;;;;;;5046490;28;20697;-62
2023/09/08 07:46:48;;;;;;;9.32;6.85;;;;;;;;;;5068432;28;20222;-63
2023/09/08 07:49:15;;;;;;;13.60;7.85;;;;;;;;;;5050560;28;20036;-64
2023/09/08 07:51:41;;;;;;;8.73;6.60;;;;;;;;;;5053221;28;20068;-64
2023/09/08 07:54:07;;;;;;;6.75;6.05;;;;;;;;;;5062971;28;20516;-64
2023/09/08 07:56:33;;;;;;;8.30;6.43;;;;;;;;;;5059017;28;20112;-64
2023/09/08 07:58:59;;;;;;;9.60;7.07;;;;;;;;;;5053181;28;20205;-64
2023/09/08 08:01:25;;;;;;;8.52;6.45;;;;;;;;;;5059177;28;20541;-63
2023/09/08 08:03:51;;;;;;;11.40;6.45;;;;;;;;;;5054197;28;20040;-63
2023/09/08 08:06:18;;;;;;;7.13;6.00;;;;;;;;;;5058054;28;20511;-64
2023/09/08 08:08:44;;;;;;;6.25;5.40;;;;;;;;;;5057591;28;20175;-62
2023/09/08 08:11:14;;;;;;;8.25;6.15;;;;;;;;;;5054103;28;20059;-64
2023/09/08 08:13:40;;;;;;;12.27;6.60;;;19.80;95.90;;;;;;5052346;28;20175;-64
2023/09/08 08:16:06;;;;;;;7.10;6.28;;;21.80;94.20;;;;;;5056372;28;20447;-64
2023/09/08 08:18:33;;;;;;;7.93;6.18;;;;;;;;;;5057064;28;20244;-64
2023/09/08 08:21:00;;;;;;;9.20;6.63;;;;;;;;;;5065158;28;20385;-64
2023/09/08 08:23:26;;;;;;;10.05;6.60;;;;;;;;;;5056714;28;20186;-64
2023/09/08 08:25:52;;;;;;;9.23;6.55;;;;;;;;;;5060755;28;20465;-63
2023/09/08 08:28:18;;;;;;;7.72;6.75;;;21.80;94.20;;;;;;5054263;28;20112;-64
2023/09/08 08:30:44;;;;;;;8.48;6.70;;;22.20;94.10;;;;;;5052948;28;20197;-63
2023/09/08 08:33:10;;;;;;;7.93;6.28;;;22.30;94.00;;;;;;5053966;28;20196;-62
2023/09/08 08:35:36;;;;;;;9.57;6.47;;;22.40;93.80;;;;;;5055247;28;20036;-64
2023/09/08 08:38:02;;;;;;;9.02;5.70;;;22.40;93.80;;;;;;5052279;28;20579;-62
2023/09/08 08:40:28;;;;;;;8.55;7.03;;;22.50;93.80;;;;;;5059741;28;20129;-63
2023/09/08 08:42:57;;;;;;;7.93;6.38;;;22.50;94.00;;;;;;5059910;28;20040;-63
2023/09/08 08:45:24;;;;;;;9.45;6.22;;;22.60;93.60;;;;;;5044530;28;20056;-62
2023/09/08 08:47:51;;;;;;;8.45;6.75;;;22.70;93.60;;;;;;5040485;28;20190;-63
2023/09/08 08:50:18;;;;;;;12.10;7.30;;;22.80;93.60;;;;;;5051638;28;20087;-62
2023/09/08 08:52:44;;;;;;;7.38;6.25;;;22.90;93.70;;;;;;5042935;28;20538;-63
2023/09/08 08:55:11;;;;;;;7.90;6.10;;;23.00;93.50;;;;;;5050076;28;20036;-63
2023/09/08 08:57:38;;;;;;;9.23;6.82;;;23.00;93.50;;;;;;5048057;28;20220;-63
2023/09/08 09:00:10;;;;;;;9.50;6.85;;;23.10;93.40;;;;;;5052444;28;20503;-62
2023/09/08 09:02:39;;;;;;;13.13;6.55;;;23.20;93.40;;;;;;5046779;28;20075;-62
2023/09/08 09:05:06;;;;;;;8.82;6.45;;;23.30;93.20;;;;;;5049079;28;20037;-63
2023/09/08 09:07:32;;;;;;;9.02;6.10;;;23.40;93.20;;;;;;5065293;28;20093;-63
2023/09/08 09:09:58;;;;;;;8.45;5.65;;;23.50;93.20;;;;;;5049344;28;20108;-64
2023/09/08 09:12:24;;;;;;;9.95;6.47;;;23.60;93.10;;;;;;5038615;28;20237;-64
2023/09/08 09:14:54;;;;;;;7.68;6.28;;;23.70;93.10;;;;;;5040967;28;20119;-63
2023/09/08 09:17:20;;;;;;;8.05;5.32;;;;;;;;;;5043116;28;20044;-64
2023/09/08 09:19:47;;;;;;;11.50;6.63;;;;;;;;;;5051114;28;20580;-63
2023/09/08 09:22:13;;;;;;;10.07;6.75;;;;;;;;;;5042015;28;20045;-64
2023/09/08 09:24:46;;;;;;;6.18;5.40;;;23.80;93.00;;;;;;5052736;28;20079;-64
2023/09/08 09:27:12;;;;;;;8.50;5.68;;;24.20;92.70;;;;;;5041472;28;20530;-63
2023/09/08 09:29:48;;;;;;;6.97;5.82;;;;;;;;;;5053504;28;20189;-64
2023/09/08 09:32:15;;;;;;;11.95;5.82;;;;;;;;;;5055099;28;20113;-64
2023/09/08 09:34:49;;;;;;;7.60;5.20;;;;;;;;;;5055059;28;20124;-63
2023/09/08 09:37:15;;;;;;;8.45;6.07;;;;;;;;;;5049088;28;20062;-62
2023/09/08 09:39:41;;;;;;;8.52;6.55;;;;;;;;;;5052140;28;20059;-62
2023/09/08 09:42:07;;;;;;;8.15;6.30;;;;;;;;;;5053975;28;20047;-63
2023/09/08 09:44:33;;;;;;;7.78;5.50;;;;;;;;;;5041193;28;20291;-63
2023/09/08 09:47:01;;;;;;;6.28;5.22;;;;;;;;;;5043886;28;20458;-63
2023/09/08 09:49:31;;;;;;;7.82;5.75;;;;;;;;;;5038432;28;20052;-62
2023/09/08 09:51:58;;;;;;;6.97;5.90;;;;;;;;;;5043442;28;20047;-61
2023/09/08 09:54:25;;;;;;;6.18;5.40;;;;;;;;;;5050552;28;20049;-61
2023/09/08 09:56:52;;;;;;;7.57;5.47;;;;;;;;;;5048339;28;20238;-61
2023/09/08 09:59:18;;;;;;;10.88;5.72;;;;;;;;;;5036744;28;20091;-63
2023/09/08 10:01:46;;;;;;;11.00;6.03;;;;;;;;;;5044884;28;20080;-63
2023/09/08 10:04:12;;;;;;;9.68;5.70;;;;;;;;;;5045665;28;20036;-63
2023/09/08 10:06:39;;;;;;;6.45;5.75;;;;;;;;;;5048038;28;20191;-62
2023/09/08 10:09:13;;;;;;;8.20;5.43;;;;;;;;;;5043570;28;20507;-65
2023/09/08 10:11:43;;;;;;;7.60;5.70;;;;;;;;;;5046336;28;20040;-62
2023/09/08 10:14:11;;;;;;;8.30;5.60;;;;;;;;;;5039415;28;20041;-62
2023/09/08 10:16:39;;;;;;;6.70;5.13;;;;;;;;;;5034662;28;20037;-63
2023/09/08 10:19:08;;;;;;;6.50;5.47;;;;;;;;;;5042970;28;20090;-62
2023/09/08 10:21:37;;;;;;;6.75;5.38;;;;;;;;;;5054550;28;20563;-62
2023/09/08 10:24:12;;;;;;;6.68;4.90;;;;;;;;;;5049968;28;20206;-64
2023/09/08 10:26:41;;;;;;;6.50;5.05;;;;;;;;;;5043473;28;20245;-64
2023/09/08 10:29:07;;;;;;;6.38;5.30;;;;;;;;;;5052959;28;20033;-63
2023/09/08 10:31:37;;;;;;;7.22;5.65;;;;;;;;;;5042423;28;20044;-63
2023/09/08 10:34:04;;;;;;;7.30;5.07;;;;;;;;;;5052532;28;20643;-63
2023/09/08 10:36:29;;;;;;;7.13;5.20;;;24.30;92.70;;;;;;5046671;28;20522;-63
2023/09/08 10:39:15;;;;;;;7.05;6.05;;;;;;;;;;5049966;28;20052;-63
2023/09/08 10:41:42;;;;;;;7.85;5.30;;;;;;;;;;5054321;28;20459;-65
2023/09/08 10:44:08;;;;;;;7.57;5.40;;;;;;;;;;5046956;28;20393;-62
2023/09/08 10:46:34;;;;;;;6.72;5.28;;;;;;;;;;5048070;28;20048;-63
2023/09/08 10:49:07;;;;;;;7.35;5.93;;;;;;;;;;5047069;28;20033;-63
2023/09/08 10:51:34;;;;;;;8.20;5.95;;;;;;;;;;5021492;28;20041;-64
2023/09/08 10:54:00;;;;;;;6.20;5.38;;;;;;;;;;5048800;28;20079;-63
2023/09/08 10:56:45;;;;;;;7.55;5.97;;;;;;;;;;5049047;28;20672;-62
2023/09/08 10:59:11;;;;;;;6.30;5.50;;;;;;;;;;5056762;28;20367;-62
2023/09/08 11:01:38;;;;;;;6.40;5.72;;;;;;;;;;5051600;28;20324;-64
2023/09/08 11:04:08;;;;;;;6.75;5.75;;;;;;;;;;5055739;28;20117;-63
2023/09/08 11:06:34;;;;;;;6.18;4.78;;;;;;;;;;5049447;28;20048;-62
2023/09/08 11:09:07;;;;;;;8.48;6.30;;;26.90;90.30;;;;;;5049047;28;20040;-62
2023/09/08 11:11:33;;;;;;;6.63;5.80;;;28.00;89.00;;;;;;5056152;28;20203;-63
2023/09/08 11:13:59;;;;;;;6.43;5.25;;;28.00;88.90;;;;;;5050635;28;20511;-62
2023/09/08 11:16:29;;;;;;;6.78;5.45;;;28.10;88.50;;;;;;5061986;28;20119;-63
2023/09/08 11:18:55;;;;;;;7.18;4.93;;;28.10;88.30;;;;;;5060582;28;20376;-64
2023/09/08 11:21:20;;;;;;;6.50;4.88;;;28.20;88.20;;;;;;5052818;28;20519;-63
2023/09/08 11:23:47;;;;;;;6.20;5.60;;;;;;;;;;5055923;28;20043;-64
2023/09/08 11:26:13;;;;;;;5.25;4.75;;;;;;;;;;5055657;28;20045;-65
2023/09/08 11:28:39;;;;;;;11.32;5.50;;;;;;;;;;5066263;28;20093;-65
2023/09/08 11:31:05;;;;;;;7.72;5.72;;;;;;;;;;5049479;28;20493;-65
2023/09/08 11:33:34;;;;;;;6.68;5.70;;;;;;;;;;5055762;28;20805;-65
2023/09/08 11:36:00;;;;;;;7.68;5.30;;;;;;;;;;5059453;28;20550;-64
2023/09/08 11:38:26;;;;;;;7.00;5.18;;;;;;;;;;5058559;28;20052;-64
2023/09/08 11:40:54;;;;;;;6.28;4.85;;;28.80;86.90;;;;;;5067824;28;20040;-64
2023/09/08 11:43:20;;;;;;;8.48;4.97;;;28.90;87.30;;;;;;5063337;28;20565;-65
2023/09/08 11:45:46;;;;;;;8.10;5.18;;;29.00;87.40;;;;;;5062816;28;20064;-65
2023/09/08 11:48:15;;;;;;;7.63;5.43;;;;;;;;;;5052137;28;20575;-65
2023/09/08 11:50:41;;;;;;;7.40;5.78;;;;;;;;;;5065076;28;20037;-64
2023/09/08 11:53:08;;;;;;;7.90;5.82;;;;;;;;;;5051278;28;20028;-63
2023/09/08 11:55:36;;;;;;;7.38;5.45;;;;;;;;;;5050812;28;20116;-64
2023/09/08 11:58:03;;;;;;;5.88;5.03;;;;;;;;;;5055787;28;20416;-65
2023/09/08 12:00:29;;;;;;;7.70;5.28;;;;;;;;;;5050890;28;20044;-64
2023/09/08 12:02:56;;;;;;;5.55;4.60;;;;;;;;;;5053368;28;20112;-63
2023/09/08 12:05:26;;;;;;;9.57;5.60;;;;;;;;;;5053095;28;20497;-64
2023/09/08 12:07:53;;;;;;;6.13;5.07;;;;;;;;;;5053716;28;20049;-65
2023/09/08 12:10:19;;;;;;;8.02;5.70;;;;;;;;;;5057632;28;20040;-64
2023/09/08 12:12:54;;;;;;;6.70;4.28;;;;;;;;;;5066721;28;20028;-65
2023/09/08 12:15:33;;;;;;;5.60;5.00;;;;;;;;;;5052395;28;20337;-63
2023/09/08 12:18:00;;;;;;;5.60;4.63;;;;;;;;;;5054395;28;20040;-64
2023/09/08 12:20:27;;;;;;;7.55;5.15;;;;;;;;;;5056608;28;20049;-64
2023/09/08 12:22:53;;;;;;;6.50;4.82;;;;;;;;;;5062871;28;20044;-64
2023/09/08 12:25:20;;;;;;;8.15;5.43;;;;;;;;;;5053383;28;20310;-65
2023/09/08 12:27:52;;;;;;;6.93;5.43;;;;;;;;;;5054436;28;20106;-64
2023/09/08 12:30:29;;;;;;;6.00;4.72;;;;;;;;;;5053123;28;20258;-66
2023/09/08 12:32:56;;;;;;;7.50;4.82;;;;;;;;;;5054168;28;20041;-63
2023/09/08 12:35:22;;;;;;;6.20;5.28;;;;;;;;;;5067021;28;20076;-64
2023/09/08 12:37:53;;;;;;;9.40;5.38;;;;;;;;;;5052696;28;20683;-63
2023/09/08 12:40:19;;;;;;;6.00;5.07;;;;;;;;;;5053083;28;20044;-63
2023/09/08 12:42:45;;;;;;;5.10;4.63;;;;;;;;;;5053174;28;20172;-64
2023/09/08 12:45:14;;;;;;;6.03;4.97;;;;;;;;;;5047371;28;20609;-64
2023/09/08 12:47:40;;;;;;;7.65;5.20;;;;;;;;;;5067244;28;20275;-64
2023/09/08 12:50:07;;;;;;;10.48;5.15;;;;;;;;;;5049254;28;20054;-63
2023/09/08 12:52:33;;;;;;;7.72;5.35;;;;;;;;;;5043334;28;20067;-63
2023/09/08 12:54:59;;;;;;;7.43;5.30;;;;;;;;;;5051545;28;20040;-63
2023/09/08 12:57:25;;;;;;;6.65;4.90;;;30.70;80.70;;;;;;5049080;28;20033;-64
2023/09/08 12:59:51;;;;;;;5.85;5.13;;;30.80;80.60;;;;;;5045352;28;20113;-64
2023/09/08 13:02:17;;;;;;;6.13;4.68;;;30.80;80.20;;;;;;5048982;28;20048;-64
2023/09/08 13:04:48;;;;;;;6.05;5.05;;;30.90;80.50;;;;;;5052366;28;20066;-63
2023/09/08 13:07:15;;;;;;;5.22;4.40;;;30.90;80.10;;;;;;5053684;28;20047;-63
2023/09/08 13:09:41;;;;;;;5.18;4.68;;;31.00;80.10;;;;;;5027407;28;20558;-64
2023/09/08 13:12:08;;;;;;;7.45;5.53;;;31.00;79.70;;;;;;5046482;28;20206;-64
2023/09/08 13:14:35;;;;;;;5.35;4.75;;;31.00;79.80;;;;;;5043447;28;20087;-65
2023/09/08 13:17:01;;;;;;;6.75;4.63;;;31.00;79.70;;;;;;5041589;28;20293;-66
2023/09/08 13:19:27;;;;;;;6.10;4.93;;;31.10;79.60;;;;;;5045959;28;20511;-64
2023/09/08 13:21:53;;;;;;;5.82;5.10;;;31.20;79.60;;;;;;5039841;28;20044;-65
2023/09/08 13:24:20;;;;;;;6.05;5.10;;;31.30;79.50;;;;;;5062910;28;20067;-64
2023/09/08 13:26:46;;;;;;;7.13;4.78;;;31.30;79.00;;;;;;5045106;28;20146;-65
2023/09/08 13:29:12;;;;;;;7.72;4.60;;;31.40;79.00;;;;;;5064274;28;20182;-64
2023/09/08 13:31:37;;;;;;;7.55;5.10;;;31.50;79.80;;;;;;5052314;28;20032;-65
2023/09/08 13:34:05;;;;;;;6.65;5.07;;;31.50;78.40;;;;;;5050206;28;20040;-65
2023/09/08 13:36:31;;;;;;;7.65;4.75;;;31.60;78.30;;;;;;5061983;28;20196;-65
2023/09/08 13:38:58;;;;;;;5.57;4.90;;;31.60;77.90;;;;;;5058328;28;20122;-65
2023/09/08 13:41:24;;;;;;;6.70;5.13;;;31.70;77.90;;;;;;5049487;28;20287;-65
2023/09/08 13:43:50;;;;;;;6.13;4.85;;;31.70;78.00;;;;;;5051026;28;20251;-66
2023/09/08 13:46:17;;;;;;;9.52;5.53;;;31.80;78.20;;;;;;5056613;28;20547;-65
2023/09/08 13:48:42;;;;;;;6.28;5.55;;;31.80;78.30;;;;;;5044800;28;20063;-65
2023/09/08 13:51:08;;;;;;;6.20;5.13;;;31.80;77.90;;;;;;5039406;28;20489;-64
2023/09/08 13:53:35;;;;;;;6.68;5.45;;;31.80;76.80;;;;;;5048274;28;20067;-64
2023/09/08 13:56:01;;;;;;;8.30;5.18;;;31.90;77.30;;;;;;5055925;28;20040;-64
2023/09/08 13:58:26;;;;;;;6.30;5.53;;;31.90;77.00;;;;;;5046554;28;20244;-65
2023/09/08 14:00:52;;;;;;;5.45;4.85;;;31.90;76.50;;;;;;5051090;28;20528;-65
2023/09/08 14:03:18;;;;;;;5.20;4.60;;;32.00;76.20;;;;;;5048270;28;20157;-64
2023/09/08 14:05:44;;;;;;;5.22;4.30;;;32.00;76.50;;;;;;5050828;28;20052;-64
2023/09/08 14:08:10;;;;;;;8.40;5.57;;;32.00;76.40;;;;;;5052915;28;20211;-65